Terminal Aerodrome Forecast
Issued by NWS Flagstaff, AZ

Home | Current Version | Previous Version | Text Only | Print | Product List | Glossary On
Versions: 1 2 3 4 5 6 7 8 9 10 11 12 13 14
000
FTUS45 KFGZ 210500
TAFINW
TAF
KINW 210526Z 2106/2206 14008KT P6SM SCT080 BKN110
      TEMPO 2106/2110 VRB10G20KT 5SM TSRA OVC080CB
     FM211000 VRB05KT P6SM BKN080 BKN120 PROB30 2118/2122 5SM TSRA
      BKN070CB
     FM220000 24010G17KT P6SM SCT120=

USA.gov is the U.S. government's official web portal to all federal, state and local government web resources and services.